Time;durP1;ratioP1;P1;durP2;ratioP2;P2;SDS_P1;SDS_P2;PMS_P1;PMS_P2;Temp;Humidity;BMP_temperature;BMP_pressure;BME280_temperature;BME280_humidity;BME280_pressure;Samples;Min_cycle;Max_cycle;Signal;HPM_P1;HPM_P2
2020/12/20 00:01:39;;;;;;;1999.90;999.90;;;8.30;99.90;;;;;;5115880;27;20056;-87
2020/12/20 00:04:07;;;;;;;1999.90;999.90;;;8.20;99.90;;;;;;5123360;27;20074;-87
2020/12/20 00:06:37;;;;;;;1999.90;999.90;;;8.30;99.90;;;;;;5115755;28;20486;-87
2020/12/20 00:09:08;;;;;;;1999.90;999.90;;;8.20;99.90;;;;;;5111725;28;20142;-87
2020/12/20 00:11:41;;;;;;;1999.90;999.90;;;8.30;99.90;;;;;;5115692;27;20127;-87
2020/12/20 00:14:27;;;;;;;1999.90;999.90;;;8.30;99.90;;;;;;5104239;28;20130;-87
2020/12/20 00:16:55;;;;;;;1999.90;999.90;;;8.20;99.90;;;;;;5114402;28;20136;-86
2020/12/20 00:19:22;;;;;;;1999.90;999.90;;;8.20;99.90;;;;;;5114413;28;20166;-87
2020/12/20 00:21:55;;;;;;;1999.90;999.90;;;8.30;99.90;;;;;;5114373;28;20044;-88
2020/12/20 00:24:22;;;;;;;1999.90;999.90;;;8.30;99.90;;;;;;5112995;28;20113;-87
2020/12/20 00:26:52;;;;;;;1999.90;999.90;;;8.30;99.90;;;;;;5112555;28;20082;-87
2020/12/20 00:29:19;;;;;;;1999.90;999.90;;;8.30;99.90;;;;;;5112307;28;20083;-87
2020/12/20 00:31:46;;;;;;;1999.90;999.90;;;8.30;99.90;;;;;;5114383;28;20051;-88
2020/12/20 00:34:14;;;;;;;1999.90;999.90;;;8.30;99.90;;;;;;5114249;28;20071;-87
2020/12/20 00:36:45;;;;;;;1999.90;999.90;;;8.30;99.90;;;;;;5112330;28;20073;-88
2020/12/20 00:39:13;;;;;;;1999.90;999.90;;;8.30;99.90;;;;;;5108011;28;20055;-87
2020/12/20 00:41:41;;;;;;;1999.90;999.90;;;8.30;99.90;;;;;;5112472;28;20051;-87
2020/12/20 00:44:09;;;;;;;1999.90;999.90;;;8.30;99.90;;;;;;5114652;28;20135;-88
2020/12/20 00:46:37;;;;;;;1999.90;999.90;;;8.30;99.90;;;;;;5112698;28;20162;-88
2020/12/20 00:49:20;;;;;;;1999.90;999.90;;;8.40;99.90;;;;;;5120353;27;20056;-88
2020/12/20 00:51:47;;;;;;;1999.90;999.90;;;8.40;99.90;;;;;;5113577;28;20059;-87
2020/12/20 00:54:14;;;;;;;1999.90;999.90;;;8.40;99.90;;;;;;5113753;28;20074;-87
2020/12/20 00:56:42;;;;;;;1999.90;999.90;;;8.40;99.90;;;;;;5112933;28;20501;-87
2020/12/20 00:59:11;;;;;;;1999.90;999.90;;;8.40;99.90;;;;;;5113642;28;20535;-87
2020/12/20 01:01:38;;;;;;;1999.90;999.90;;;8.40;99.90;;;;;;5114117;28;20526;-88
2020/12/20 01:04:05;;;;;;;1999.90;999.90;;;8.40;99.90;;;;;;5115525;27;20130;-87
2020/12/20 01:06:33;;;;;;;1999.90;999.90;;;8.40;99.90;;;;;;5108116;28;20481;-87
2020/12/20 01:09:00;;;;;;;1999.90;999.90;;;8.40;99.90;;;;;;5113427;28;20125;-87
2020/12/20 01:11:27;;;;;;;1999.90;999.90;;;8.50;99.90;;;;;;5115996;27;20048;-87
2020/12/20 01:13:55;;;;;;;1999.90;999.90;;;8.50;99.90;;;;;;5109414;28;20068;-88
2020/12/20 01:16:25;;;;;;;1999.90;999.90;;;8.50;99.90;;;;;;5091466;28;20146;-88
2020/12/20 01:18:53;;;;;;;1999.90;999.90;;;8.60;99.90;;;;;;5092476;28;20056;-88
2020/12/20 01:21:20;;;;;;;1999.90;999.90;;;8.60;99.90;;;;;;5092080;28;20399;-87
2020/12/20 01:23:48;;;;;;;1999.90;999.90;;;8.60;99.90;;;;;;5086127;28;20147;-88
2020/12/20 01:26:15;;;;;;;1999.90;999.90;;;8.70;99.90;;;;;;5092446;28;20051;-88
2020/12/20 01:28:43;;;;;;;1999.90;999.90;;;8.60;99.90;;;;;;5093064;28;20082;-87
2020/12/20 01:31:12;;;;;;;1999.90;999.90;;;8.70;99.90;;;;;;5092625;28;20202;-88
2020/12/20 01:33:40;;;;;;;1999.90;999.90;;;8.70;99.90;;;;;;5093284;28;20056;-88
2020/12/20 01:36:07;;;;;;;1999.90;999.90;;;8.70;99.90;;;;;;5090885;28;20084;-87
2020/12/20 01:38:35;;;;;;;1999.90;999.90;;;8.70;99.90;;;;;;5091596;28;20059;-87
2020/12/20 01:41:03;;;;;;;1999.90;999.90;;;8.70;99.90;;;;;;5091477;28;20044;-88
2020/12/20 01:43:41;;;;;;;1999.90;999.90;;;8.70;99.90;;;;;;5093158;28;20071;-87
2020/12/20 01:46:10;;;;;;;1999.90;999.90;;;8.70;99.90;;;;;;5091366;28;20052;-88
2020/12/20 01:48:37;;;;;;;1999.90;999.90;;;8.70;99.90;;;;;;5092173;28;20163;-88
2020/12/20 01:51:06;;;;;;;1999.90;999.90;;;8.70;99.90;;;;;;5091114;28;20048;-88
2020/12/20 01:53:34;;;;;;;1999.90;999.90;;;8.70;99.90;;;;;;5106431;28;20055;-88
2020/12/20 01:56:04;;;;;;;1999.90;999.90;;;8.80;99.90;;;;;;5110025;28;20044;-88
2020/12/20 01:58:36;;;;;;;1999.90;999.90;;;8.80;99.90;;;;;;5091957;28;20091;-88
2020/12/20 02:01:04;;;;;;;1999.90;999.90;;;8.80;99.90;;;;;;5094047;28;20052;-88
2020/12/20 02:03:32;;;;;;;1999.90;999.90;;;8.80;99.90;;;;;;5092987;28;20086;-88
2020/12/20 02:06:00;;;;;;;1999.90;999.90;;;8.80;99.90;;;;;;5094115;28;20056;-88
2020/12/20 02:08:28;;;;;;;1999.90;999.90;;;8.70;99.90;;;;;;5094469;28;20093;-87
2020/12/20 02:11:09;;;;;;;1999.90;999.90;;;8.80;99.90;;;;;;5093928;28;20056;-87
2020/12/20 02:13:41;;;;;;;1999.90;999.90;;;8.80;99.90;;;;;;5102072;28;20131;-89
2020/12/20 02:16:08;;;;;;;1999.90;999.90;;;8.80;99.90;;;;;;5111286;28;20128;-90
2020/12/20 02:18:35;;;;;;;1999.90;999.90;;;8.80;99.90;;;;;;5113583;28;20075;-90
2020/12/20 02:21:10;;;;;;;1999.90;999.90;;;8.70;99.90;;;;;;5110641;28;20542;-90
2020/12/20 02:23:39;;;;;;;1999.90;999.90;;;8.80;99.90;;;;;;5111084;28;20478;-91
2020/12/20 02:26:07;;;;;;;1999.90;999.90;;;8.80;99.90;;;;;;5112868;28;20071;-91
2020/12/20 02:28:34;;;;;;;1999.90;999.90;;;8.80;99.90;;;;;;5113402;28;20109;-91
2020/12/20 02:31:01;;;;;;;1999.90;999.90;;;8.80;99.90;;;;;;5114269;28;20160;-90
2020/12/20 02:33:28;;;;;;;1999.90;999.90;;;8.80;99.90;;;;;;5116164;28;20071;-91
2020/12/20 02:35:55;;;;;;;1999.90;999.90;;;8.80;99.90;;;;;;5116835;28;20078;-90
2020/12/20 02:38:23;;;;;;;1999.90;999.90;;;8.80;99.90;;;;;;5116747;28;20078;-91
2020/12/20 02:40:50;;;;;;;1999.90;999.90;;;8.70;99.90;;;;;;5116512;28;20039;-91
2020/12/20 02:43:17;;;;;;;1999.90;999.90;;;8.80;99.90;;;;;;5116717;28;20422;-91
2020/12/20 02:45:44;;;;;;;1999.90;999.90;;;8.70;99.90;;;;;;5116617;28;20078;-90
2020/12/20 02:48:11;;;;;;;1999.90;999.90;;;8.70;99.90;;;;;;5110042;28;20782;-90
2020/12/20 02:50:38;;;;;;;1999.90;999.90;;;8.70;99.90;;;;;;5110184;28;20468;-91
2020/12/20 02:53:05;;;;;;;1999.90;999.90;;;8.70;99.90;;;;;;5115922;28;20087;-90
2020/12/20 02:55:33;;;;;;;1999.90;999.90;;;8.70;99.90;;;;;;5116398;28;20134;-91
2020/12/20 02:58:00;;;;;;;1999.90;999.90;;;8.70;99.90;;;;;;5116759;28;20135;-91
2020/12/20 03:00:27;;;;;;;1999.90;999.90;;;8.70;99.90;;;;;;5116027;28;20043;-90
2020/12/20 03:02:54;;;;;;;1999.90;999.90;;;8.70;99.90;;;;;;5116320;28;20141;-90
2020/12/20 03:05:21;;;;;;;1999.90;999.90;;;8.70;99.90;;;;;;5115578;28;20521;-90
2020/12/20 03:07:48;;;;;;;1999.90;999.90;;;8.70;99.90;;;;;;5115882;28;20112;-90
2020/12/20 03:10:17;;;;;;;1999.90;999.90;;;8.70;99.90;;;;;;5116428;28;20454;-91
2020/12/20 03:12:45;;;;;;;1999.90;999.90;;;8.70;99.90;;;;;;5116063;28;20108;-90
2020/12/20 03:15:12;;;;;;;1999.90;999.90;;;8.60;99.90;;;;;;5116238;28;20142;-91
2020/12/20 03:17:40;;;;;;;1999.90;999.90;;;8.60;99.90;;;;;;5116122;28;20134;-91
2020/12/20 03:20:07;;;;;;;1999.90;999.90;;;8.60;99.90;;;;;;5116031;28;20048;-90
2020/12/20 03:22:34;;;;;;;1999.90;999.90;;;8.60;99.90;;;;;;5115945;28;20090;-91
2020/12/20 03:25:01;;;;;;;1999.90;999.90;;;8.60;99.90;;;;;;5115614;28;20047;-90
2020/12/20 03:27:28;;;;;;;1999.90;999.90;;;8.60;99.90;;;;;;5116090;28;20139;-90
2020/12/20 03:29:56;;;;;;;1999.90;999.90;;;8.60;99.90;;;;;;5115350;27;20187;-91
2020/12/20 03:32:23;;;;;;;1999.90;999.90;;;8.60;99.90;;;;;;5115217;28;20079;-90
2020/12/20 03:34:50;;;;;;;1999.90;999.90;;;8.50;99.90;;;;;;5115715;28;20086;-90
2020/12/20 03:37:17;;;;;;;1999.90;999.90;;;8.50;99.90;;;;;;5115941;28;20055;-90
2020/12/20 03:39:44;;;;;;;1999.90;999.90;;;8.50;99.90;;;;;;5115585;28;20497;-91
2020/12/20 03:42:11;;;;;;;1999.90;999.90;;;8.50;99.90;;;;;;5119472;27;20494;-90
2020/12/20 03:44:38;;;;;;;1999.90;999.90;;;8.50;99.90;;;;;;5118142;27;20047;-90
2020/12/20 03:47:06;;;;;;;1999.90;999.90;;;8.40;99.90;;;;;;5116829;28;20115;-90
2020/12/20 03:49:33;;;;;;;1999.90;999.90;;;8.40;99.90;;;;;;5116255;28;20138;-90
2020/12/20 03:52:00;;;;;;;1999.90;999.90;;;8.40;99.90;;;;;;5114920;28;20054;-91
2020/12/20 03:54:27;;;;;;;1999.90;999.90;;;8.40;99.90;;;;;;5103271;28;20473;-91
2020/12/20 03:56:55;;;;;;;1999.90;999.90;;;8.40;99.90;;;;;;5115830;28;20134;-90
2020/12/20 03:59:22;;;;;;;1999.90;999.90;;;8.40;99.90;;;;;;5117873;27;20048;-90
2020/12/20 04:01:49;;;;;;;1999.90;999.90;;;8.40;99.90;;;;;;5115831;27;20046;-90
2020/12/20 04:04:17;;;;;;;1999.90;999.90;;;8.40;99.90;;;;;;5116027;27;20071;-90
2020/12/20 04:06:44;;;;;;;1999.90;999.90;;;8.40;99.90;;;;;;5119186;27;20039;-90
2020/12/20 04:09:11;;;;;;;1999.90;999.90;;;8.30;99.90;;;;;;5114860;28;20147;-90
2020/12/20 04:11:38;;;;;;;1999.90;999.90;;;8.30;99.90;;;;;;5114813;28;20054;-90
2020/12/20 04:14:05;;;;;;;1999.90;999.90;;;8.30;99.90;;;;;;5114227;28;20377;-90
2020/12/20 04:16:32;;;;;;;1999.90;999.90;;;8.40;99.90;;;;;;5114680;28;20055;-90
2020/12/20 04:18:59;;;;;;;1999.90;999.90;;;8.40;99.90;;;;;;5114996;28;20113;-90
2020/12/20 04:21:31;;;;;;;1999.90;999.90;;;8.30;99.90;;;;;;5101542;28;20051;-91
2020/12/20 04:23:59;;;;;;;1999.90;999.90;;;8.30;99.90;;;;;;5115003;28;20051;-90
2020/12/20 04:26:26;;;;;;;1999.90;999.90;;;8.40;99.90;;;;;;5114435;28;20087;-91
2020/12/20 04:28:53;;;;;;;1999.90;999.90;;;8.30;99.90;;;;;;5114449;28;20077;-90
2020/12/20 04:31:20;;;;;;;1999.90;999.90;;;8.30;99.90;;;;;;5113607;28;20559;-91
2020/12/20 04:33:49;;;;;;;1999.90;999.90;;;8.30;99.90;;;;;;5114609;28;20505;-90
2020/12/20 04:36:16;;;;;;;1999.90;999.90;;;8.30;99.90;;;;;;5113836;28;20047;-91
2020/12/20 04:38:44;;;;;;;1999.90;999.90;;;8.30;99.90;;;;;;5114774;28;20086;-91
2020/12/20 04:41:11;;;;;;;1999.90;999.90;;;8.30;99.90;;;;;;5113958;28;20131;-90
2020/12/20 04:43:38;;;;;;;1999.90;999.90;;;8.20;99.90;;;;;;5114179;28;20470;-91
2020/12/20 04:46:06;;;;;;;1999.90;999.90;;;8.20;99.90;;;;;;5114018;28;20075;-90
2020/12/20 04:48:37;;;;;;;1999.90;999.90;;;8.20;99.90;;;;;;5114523;28;20044;-90
2020/12/20 04:51:05;;;;;;;1999.90;999.90;;;8.20;99.90;;;;;;5114575;28;20444;-90
2020/12/20 04:53:32;;;;;;;1999.90;999.90;;;8.20;99.90;;;;;;5114466;28;20043;-90
2020/12/20 04:56:11;;;;;;;1999.90;999.90;;;8.20;99.90;;;;;;5114240;28;20055;-91
2020/12/20 04:58:40;;;;;;;1999.90;999.90;;;8.20;99.90;;;;;;5113980;28;20130;-90
2020/12/20 05:01:09;;;;;;;1999.90;999.90;;;8.10;99.90;;;;;;5114012;28;20135;-90
2020/12/20 05:03:36;;;;;;;1999.90;999.90;;;8.10;99.90;;;;;;5113717;28;20073;-89
2020/12/20 05:06:04;;;;;;;1999.90;999.90;;;8.10;99.90;;;;;;5113730;28;20393;-89
2020/12/20 05:08:31;;;;;;;1999.90;999.90;;;8.10;99.90;;;;;;5106808;28;20706;-89
2020/12/20 05:10:58;;;;;;;1999.90;999.90;;;8.10;99.90;;;;;;5113998;28;20142;-89
2020/12/20 05:13:38;;;;;;;1999.90;999.90;;;8.10;99.90;;;;;;5114436;28;20071;-90
2020/12/20 05:16:05;;;;;;;1999.90;999.90;;;8.00;99.90;;;;;;5114278;28;20135;-89
2020/12/20 05:18:32;;;;;;;1999.90;999.90;;;8.10;99.90;;;;;;5114065;28;20082;-90
2020/12/20 05:20:59;;;;;;;1999.90;999.90;;;8.00;99.90;;;;;;5113063;28;20043;-90
2020/12/20 05:23:29;;;;;;;1999.90;999.90;;;7.90;99.90;;;;;;5113655;28;20056;-89
2020/12/20 05:26:06;;;;;;;1999.90;999.90;;;7.90;99.90;;;;;;5113526;28;20101;-90
2020/12/20 05:28:34;;;;;;;1999.90;999.90;;;8.00;99.90;;;;;;5113901;28;20062;-90
2020/12/20 05:31:08;;;;;;;1999.90;999.90;;;7.90;99.90;;;;;;5114100;28;20151;-90
2020/12/20 05:33:37;;;;;;;1999.90;999.90;;;8.00;99.90;;;;;;5112236;28;20055;-90
2020/12/20 05:36:06;;;;;;;1999.90;999.90;;;7.90;99.90;;;;;;5112982;28;20048;-90
2020/12/20 05:38:35;;;;;;;1999.90;999.90;;;7.90;99.90;;;;;;5112943;28;20044;-90
2020/12/20 05:41:03;;;;;;;1999.90;999.90;;;7.90;99.90;;;;;;5113014;28;20093;-90
2020/12/20 05:43:30;;;;;;;1999.90;999.90;;;7.90;99.90;;;;;;5113265;28;20079;-90
2020/12/20 05:45:58;;;;;;;1999.90;999.90;;;7.90;99.90;;;;;;5113428;28;20458;-90
2020/12/20 05:48:27;;;;;;;1999.90;999.90;;;7.90;99.90;;;;;;5113712;28;20417;-90
2020/12/20 05:50:56;;;;;;;1999.90;999.90;;;7.90;99.90;;;;;;5113497;28;20527;-91
2020/12/20 05:53:25;;;;;;;1999.90;999.90;;;7.90;99.90;;;;;;5113930;28;20048;-91
2020/12/20 05:55:54;;;;;;;1999.90;999.90;;;7.90;99.90;;;;;;5113004;28;20485;-90
2020/12/20 05:58:21;;;;;;;1999.90;999.90;;;7.90;99.90;;;;;;5112771;28;20124;-90
2020/12/20 06:00:52;;;;;;;1999.90;999.90;;;7.90;99.90;;;;;;5113216;28;20043;-91
2020/12/20 06:03:21;;;;;;;1999.90;999.90;;;7.90;99.90;;;;;;5119268;28;20146;-90
2020/12/20 06:05:49;;;;;;;1999.90;999.90;;;7.90;99.90;;;;;;5114688;28;20082;-91
2020/12/20 06:08:17;;;;;;;1999.90;999.90;;;7.90;99.90;;;;;;5114471;28;20044;-90
2020/12/20 06:10:45;;;;;;;1999.90;999.90;;;7.90;99.90;;;;;;5116270;28;20067;-90
2020/12/20 06:13:14;;;;;;;1999.90;999.90;;;7.90;99.90;;;;;;5115907;28;20048;-90
2020/12/20 06:15:42;;;;;;;1999.90;999.90;;;7.90;99.90;;;;;;5116244;27;20113;-90
2020/12/20 06:18:12;;;;;;;1999.90;999.90;;;7.90;99.90;;;;;;5114398;28;20148;-90
2020/12/20 06:20:51;;;;;;;1999.90;999.90;;;7.90;99.90;;;;;;5113879;28;20052;-90
2020/12/20 06:23:20;;;;;;;1999.90;999.90;;;7.90;99.90;;;;;;5111829;28;20044;-91
2020/12/20 06:25:48;;;;;;;1999.90;999.90;;;7.90;99.90;;;;;;5115783;27;20082;-90
2020/12/20 06:28:18;;;;;;;1999.90;999.90;;;7.90;99.90;;;;;;5115934;28;20067;-90
2020/12/20 06:30:46;;;;;;;1999.90;999.90;;;7.90;99.90;;;;;;5117073;28;20056;-91
2020/12/20 06:33:32;;;;;;;1999.90;999.90;;;7.90;99.90;;;;;;5123845;27;20108;-90
2020/12/20 06:36:02;;;;;;;1999.90;999.90;;;7.90;99.90;;;;;;5116203;28;20566;-91
2020/12/20 06:38:29;;;;;;;1999.90;999.90;;;8.00;99.90;;;;;;5116780;28;20134;-90
2020/12/20 06:40:56;;;;;;;1999.90;999.90;;;7.90;99.90;;;;;;5117128;27;20043;-91
2020/12/20 06:43:32;;;;;;;1999.90;999.90;;;7.90;99.90;;;;;;5116758;28;20803;-89
2020/12/20 06:46:00;;;;;;;1999.90;999.90;;;7.90;99.90;;;;;;5112614;28;20140;-90
2020/12/20 06:48:32;;;;;;;1999.90;999.90;;;7.90;99.90;;;;;;5115393;27;20139;-90
2020/12/20 06:51:01;;;;;;;1999.90;999.90;;;7.90;99.90;;;;;;5116121;28;20123;-90
2020/12/20 06:53:53;;;;;;;1999.90;999.90;;;7.90;99.90;;;;;;5116197;27;20074;-91
2020/12/20 06:56:22;;;;;;;1999.90;999.90;;;7.90;99.90;;;;;;5116574;28;20071;-90
2020/12/20 06:58:50;;;;;;;1999.90;999.90;;;7.90;99.90;;;;;;5116405;28;20562;-90
2020/12/20 07:01:36;;;;;;;1999.90;999.90;;;7.90;99.90;;;;;;5115527;28;20094;-90
2020/12/20 07:04:04;;;;;;;1999.90;999.90;;;7.90;99.90;;;;;;5112768;27;20443;-90
2020/12/20 07:06:32;;;;;;;1999.90;999.90;;;7.90;99.90;;;;;;5112731;27;20466;-90
2020/12/20 07:09:05;;;;;;;1999.90;999.90;;;7.90;99.90;;;;;;5114543;28;20096;-90
2020/12/20 07:11:40;;;;;;;1999.90;999.90;;;7.90;99.90;;;;;;5116229;28;20069;-90
2020/12/20 07:14:21;;;;;;;1999.90;999.90;;;7.80;99.90;;;;;;5115240;27;20052;-90
2020/12/20 07:16:49;;;;;;;1999.90;999.90;;;7.80;99.90;;;;;;5116206;28;20116;-90
2020/12/20 07:19:23;;;;;;;1999.90;999.90;;;7.80;99.90;;;;;;5114290;27;20055;-90
2020/12/20 07:21:59;;;;;;;1999.90;999.90;;;7.90;99.90;;;;;;5115616;28;20091;-90
2020/12/20 07:24:29;;;;;;;1999.90;999.90;;;7.90;99.90;;;;;;5114599;28;20051;-89
2020/12/20 07:27:00;;;;;;;1999.90;999.90;;;7.90;99.90;;;;;;5114969;27;20122;-90
2020/12/20 07:29:28;;;;;;;1999.90;999.90;;;7.90;99.90;;;;;;5114185;27;20120;-90
2020/12/20 07:31:57;;;;;;;1999.90;999.90;;;7.90;99.90;;;;;;5113103;28;20493;-90
2020/12/20 07:34:25;;;;;;;1999.90;999.90;;;7.90;99.90;;;;;;5114577;27;20347;-90
2020/12/20 07:36:53;;;;;;;1999.90;999.90;;;7.90;99.90;;;;;;5114340;28;20482;-90
2020/12/20 07:39:20;;;;;;;1999.90;999.90;;;7.90;99.90;;;;;;5116010;28;20134;-90
2020/12/20 07:41:48;;;;;;;1999.90;999.90;;;7.90;99.90;;;;;;5114653;28;20050;-89
2020/12/20 07:44:15;;;;;;;1999.90;999.90;;;7.90;99.90;;;;;;5115487;28;20047;-90
2020/12/20 07:46:42;;;;;;;1999.90;999.90;;;7.90;99.90;;;;;;5115776;28;20062;-89
2020/12/20 07:49:11;;;;;;;1999.90;999.90;;;7.90;99.90;;;;;;5115388;27;20581;-90
2020/12/20 07:51:39;;;;;;;1999.90;999.90;;;7.90;99.90;;;;;;5115673;28;20131;-90
2020/12/20 07:54:08;;;;;;;1999.90;999.90;;;7.90;99.90;;;;;;5115677;28;20169;-90
2020/12/20 07:56:37;;;;;;;1999.90;999.90;;;7.90;99.90;;;;;;5115431;28;20153;-90
2020/12/20 07:59:06;;;;;;;1999.90;999.90;;;7.90;99.90;;;;;;5115229;28;20105;-90
2020/12/20 08:01:34;;;;;;;1999.90;999.90;;;7.90;99.90;;;;;;5115136;28;20051;-90
2020/12/20 08:04:03;;;;;;;1999.90;999.90;;;7.90;99.90;;;;;;5114552;28;20051;-90
2020/12/20 08:06:30;;;;;;;1999.90;999.90;;;7.90;99.90;;;;;;5115481;28;20142;-90
2020/12/20 08:09:11;;;;;;;1999.90;999.90;;;7.90;99.90;;;;;;5114890;28;20097;-90
2020/12/20 08:11:40;;;;;;;1999.90;999.90;;;7.90;99.90;;;;;;5114967;28;20559;-90
2020/12/20 08:14:09;;;;;;;1999.90;999.90;;;7.80;99.90;;;;;;5114147;28;20102;-90
2020/12/20 08:16:39;;;;;;;1999.90;999.90;;;7.90;99.90;;;;;;5116706;28;20805;-90
2020/12/20 08:19:08;;;;;;;1999.90;999.90;;;7.90;99.90;;;;;;5115665;28;20509;-91
2020/12/20 08:21:52;;;;;;;1999.90;999.90;;;7.90;99.90;;;;;;5115097;28;20056;-90
2020/12/20 08:24:22;;;;;;;1999.90;999.90;;;7.90;99.90;;;;;;5113732;28;20043;-90
2020/12/20 08:26:52;;;;;;;1999.90;999.90;;;7.90;99.90;;;;;;5110140;28;20583;-90
2020/12/20 08:29:19;;;;;;;1999.90;999.90;;;7.90;99.90;;;;;;5114330;28;20112;-90
2020/12/20 08:31:47;;;;;;;1999.90;999.90;;;7.90;99.90;;;;;;5112686;28;20062;-90
2020/12/20 08:34:23;;;;;;;1999.90;999.90;;;7.90;99.90;;;;;;5114851;28;20051;-90
2020/12/20 08:36:52;;;;;;;1999.90;999.90;;;7.90;99.90;;;;;;5114272;28;20123;-90
2020/12/20 08:39:23;;;;;;;1999.90;999.90;;;7.90;99.90;;;;;;5109513;28;20062;-89
2020/12/20 08:42:02;;;;;;;1999.90;999.90;;;8.00;99.90;;;;;;5108908;28;20538;-90
2020/12/20 08:44:30;;;;;;;1999.90;999.90;;;8.00;99.90;;;;;;5114278;28;20121;-90
2020/12/20 08:47:12;;;;;;;1999.90;999.90;;;8.00;99.90;;;;;;5109905;28;20047;-90
2020/12/20 08:49:40;;;;;;;1999.90;999.90;;;8.00;99.90;;;;;;5114657;28;20142;-90
2020/12/20 08:52:11;;;;;;;1999.90;999.90;;;8.00;99.90;;;;;;5113206;28;20147;-90
2020/12/20 08:54:38;;;;;;;1999.90;999.90;;;8.00;99.90;;;;;;5114278;28;20134;-90
2020/12/20 08:57:07;;;;;;;1999.90;999.90;;;8.00;99.90;;;;;;5100658;28;20112;-90
2020/12/20 08:59:37;;;;;;;1999.90;999.90;;;8.10;99.90;;;;;;5103952;28;20052;-90
2020/12/20 09:02:05;;;;;;;1999.90;999.90;;;8.10;99.90;;;;;;5109235;28;20090;-87
2020/12/20 09:04:34;;;;;;;1999.90;999.90;;;8.10;99.90;;;;;;5114107;28;20419;-88
2020/12/20 09:07:10;;;;;;;1999.90;999.90;;;8.10;99.90;;;;;;5113582;28;20056;-88
2020/12/20 09:09:38;;;;;;;1999.90;999.90;;;8.10;99.90;;;;;;5110282;28;20055;-88
2020/12/20 09:12:20;;;;;;;1999.90;999.90;;;8.20;99.90;;;;;;5113835;28;20093;-88
2020/12/20 09:15:14;;;;;;;1999.90;999.90;;;8.20;99.90;;;;;;5108368;28;20083;-88
2020/12/20 09:17:42;;;;;;;1999.90;999.90;;;8.20;99.90;;;;;;5123732;28;20055;-88
2020/12/20 09:20:15;;;;;;;1999.90;999.90;;;8.20;99.90;;;;;;5120667;28;20044;-87
2020/12/20 09:22:50;;;;;;;1999.90;999.90;;;8.20;99.90;;;;;;5114963;28;20066;-88
2020/12/20 09:25:29;;;;;;;1999.90;999.90;;;8.30;99.90;;;;;;5114237;28;20074;-88
2020/12/20 09:27:59;;;;;;;1999.90;999.90;;;8.30;99.90;;;;;;5112160;28;20091;-88
2020/12/20 09:30:47;;;;;;;1999.90;999.90;;;8.30;99.90;;;;;;5102212;28;20052;-88
2020/12/20 09:33:16;;;;;;;1999.90;999.90;;;8.30;99.90;;;;;;5105498;28;20227;-88
2020/12/20 09:35:55;;;;;;;1999.90;999.90;;;8.40;99.90;;;;;;5113501;28;20047;-87
2020/12/20 09:38:24;;;;;;;1999.90;999.90;;;8.40;99.90;;;;;;5113778;28;20079;-87
2020/12/20 09:41:03;;;;;;;1999.90;999.90;;;8.40;99.90;;;;;;5111744;28;20051;-91
2020/12/20 09:43:31;;;;;;;1999.90;999.90;;;8.40;99.90;;;;;;5111289;28;20113;-91
2020/12/20 09:45:59;;;;;;;1999.90;999.90;;;8.50;99.90;;;;;;5113118;28;20090;-91
2020/12/20 09:48:27;;;;;;;1999.90;999.90;;;8.50;99.90;;;;;;5107262;28;20128;-92
2020/12/20 09:50:54;;;;;;;1999.90;999.90;;;8.50;99.90;;;;;;5113476;28;20109;-91
2020/12/20 09:53:21;;;;;;;1999.90;999.90;;;8.50;99.90;;;;;;5113473;28;20058;-91
2020/12/20 09:55:49;;;;;;;1999.90;999.90;;;8.60;99.90;;;;;;5113423;28;20078;-91
2020/12/20 09:58:16;;;;;;;1999.90;999.90;;;8.60;99.90;;;;;;5113052;28;20114;-91
2020/12/20 10:00:44;;;;;;;1999.90;999.90;;;8.60;99.90;;;;;;5113583;28;20111;-91
2020/12/20 10:03:12;;;;;;;1999.90;999.90;;;8.60;99.90;;;;;;5112732;28;20052;-90
2020/12/20 10:05:42;;;;;;;1999.90;999.90;;;8.60;99.90;;;;;;5106861;28;20084;-88
2020/12/20 10:08:10;;;;;;;1999.90;999.90;;;8.60;99.90;;;;;;5098755;28;20052;-88
2020/12/20 10:10:37;;;;;;;1999.90;999.90;;;8.60;99.90;;;;;;5122516;28;20199;-87
2020/12/20 10:13:04;;;;;;;1999.90;999.90;;;8.70;99.90;;;;;;5109111;28;20079;-88
2020/12/20 10:15:31;;;;;;;1999.90;999.90;;;8.70;99.90;;;;;;5112907;28;20078;-87
2020/12/20 10:18:01;;;;;;;1999.90;999.90;;;8.80;99.90;;;;;;5112711;28;20481;-87
2020/12/20 10:20:29;;;;;;;1999.90;999.90;;;8.80;99.90;;;;;;5111916;28;20048;-87
2020/12/20 10:22:56;;;;;;;1999.90;999.90;;;8.80;99.90;;;;;;5112004;28;20078;-87
2020/12/20 10:25:23;;;;;;;1999.90;999.90;;;8.80;99.90;;;;;;5119756;28;20047;-87
2020/12/20 10:27:53;;;;;;;1999.90;999.90;;;8.90;99.90;;;;;;5113342;28;20461;-87
2020/12/20 10:30:20;;;;;;;1999.90;999.90;;;8.90;99.90;;;;;;5112548;28;20138;-86
2020/12/20 10:32:47;;;;;;;1999.90;999.90;;;8.90;99.90;;;;;;5112395;28;20044;-86
2020/12/20 10:35:15;;;;;;;1999.90;999.90;;;9.00;99.90;;;;;;5110872;28;20043;-87
2020/12/20 10:37:43;;;;;;;1999.90;999.90;;;9.00;99.90;;;;;;5111362;28;20130;-87
2020/12/20 10:40:10;;;;;;;1999.90;999.90;;;9.00;99.90;;;;;;5107697;28;20043;-87
2020/12/20 10:42:37;;;;;;;1999.90;999.90;;;9.00;99.90;;;;;;5111723;28;20462;-87
2020/12/20 10:45:05;;;;;;;1999.90;999.90;;;9.00;99.90;;;;;;5114047;28;20075;-87
2020/12/20 10:47:32;;;;;;;1999.90;999.90;;;9.10;99.90;;;;;;5112457;28;20048;-87
2020/12/20 10:50:00;;;;;;;1999.90;999.90;;;9.20;99.90;;;;;;5112808;28;20138;-87
2020/12/20 10:52:29;;;;;;;1999.90;999.90;;;9.20;99.90;;;;;;5115053;28;20063;-87
2020/12/20 10:54:57;;;;;;;1999.90;999.90;;;9.20;99.90;;;;;;5115375;28;20047;-87
2020/12/20 10:57:24;;;;;;;1999.90;999.90;;;9.20;99.90;;;;;;5116532;28;20110;-88
2020/12/20 10:59:51;;;;;;;1999.90;999.90;;;9.20;99.90;;;;;;5115773;28;20541;-87
2020/12/20 11:02:18;;;;;;;1999.90;999.90;;;9.20;99.90;;;;;;5121520;27;20112;-87
2020/12/20 11:04:46;;;;;;;1999.90;999.90;;;9.20;99.90;;;;;;5113312;28;21245;-88
2020/12/20 11:07:13;;;;;;;1999.90;999.90;;;9.20;99.90;;;;;;5116157;28;20050;-87
2020/12/20 11:09:41;;;;;;;1999.90;999.90;;;9.20;99.90;;;;;;5116770;28;20782;-88
2020/12/20 11:12:08;;;;;;;1999.90;999.90;;;9.30;99.90;;;;;;5115000;28;20441;-88
2020/12/20 11:14:37;;;;;;;1999.90;999.90;;;9.30;99.90;;;;;;5116571;27;20057;-88
2020/12/20 11:17:04;;;;;;;1999.90;999.90;;;9.30;99.90;;;;;;5116105;28;20051;-88
2020/12/20 11:19:31;;;;;;;1999.90;999.90;;;9.30;99.90;;;;;;5115255;28;20109;-88
2020/12/20 11:21:59;;;;;;;1999.90;999.90;;;9.30;99.90;;;;;;5115709;27;20123;-87
2020/12/20 11:24:26;;;;;;;1999.90;999.90;;;9.30;99.90;;;;;;5114042;28;20093;-87
2020/12/20 11:26:55;;;;;;;1999.90;999.90;;;9.40;99.90;;;;;;5113336;28;20749;-89
2020/12/20 11:29:22;;;;;;;1999.90;999.90;;;9.30;99.90;;;;;;5114879;28;20131;-87
2020/12/20 11:31:49;;;;;;;1999.90;999.90;;;9.30;99.90;;;;;;5115107;28;20048;-87
2020/12/20 11:34:16;;;;;;;1999.90;999.90;;;9.40;99.90;;;;;;5115052;28;20135;-87
2020/12/20 11:36:44;;;;;;;1999.90;999.90;;;9.40;99.90;;;;;;5115370;28;20059;-87
2020/12/20 11:39:13;;;;;;;1999.90;999.90;;;9.50;99.90;;;;;;5115608;28;20070;-88
2020/12/20 11:41:41;;;;;;;1999.90;999.90;;;9.50;99.90;;;;;;5114904;28;20484;-91
2020/12/20 11:44:09;;;;;;;1999.90;999.90;;;9.50;99.90;;;;;;5115871;28;20047;-91
2020/12/20 11:46:36;;;;;;;1999.90;999.90;;;9.60;99.90;;;;;;5115780;28;20520;-91
2020/12/20 11:49:04;;;;;;;1999.90;999.90;;;9.60;99.90;;;;;;5112055;28;20111;-91
2020/12/20 11:51:31;;;;;;;1999.90;999.90;;;9.60;99.90;;;;;;5114657;28;20120;-92
2020/12/20 11:53:59;;;;;;;1999.90;999.90;;;9.60;99.90;;;;;;5115202;28;20138;-89
2020/12/20 11:56:26;;;;;;;1999.90;999.90;;;9.60;99.90;;;;;;5114218;28;20644;-87
2020/12/20 11:58:53;;;;;;;1999.90;999.90;;;9.70;99.90;;;;;;5112098;27;20083;-90
2020/12/20 12:01:23;;;;;;;1999.90;999.90;;;9.70;99.90;;;;;;5116179;27;20149;-90
2020/12/20 12:03:50;;;;;;;1999.90;999.90;;;9.70;99.90;;;;;;5117881;27;20195;-90
2020/12/20 12:06:17;;;;;;;1999.90;999.90;;;9.70;99.90;;;;;;5108319;27;20093;-90
2020/12/20 12:08:45;;;;;;;1999.90;999.90;;;9.70;99.90;;;;;;5110942;28;20055;-91
2020/12/20 12:11:17;;;;;;;1999.90;999.90;;;9.80;99.90;;;;;;5114674;28;20138;-91
2020/12/20 12:13:45;;;;;;;1999.90;999.90;;;9.70;99.90;;;;;;5114173;28;20064;-92
2020/12/20 12:16:14;;;;;;;1999.90;999.90;;;9.70;99.90;;;;;;5115071;28;20138;-93
2020/12/20 12:18:42;;;;;;;1999.90;999.90;;;9.70;99.90;;;;;;5115092;28;20130;-92